LFMV 301030Z AUTO VRB04KT CAVOK 24/10 Q1017

ElémentsDécodage
LFMV Station météo située sur l'aérodrome de AVIGNON Caumont
301030Z émis le 30 du mois à 10h30 UTC
AUTO Bulletin édité par un automate
VRB04KT vent de direction variable, 04 noeuds
CAVOK Ceiling And Visibility OK
- Visibilité de 10 Km ou plus
- Pas de nuage au-dessous de 1500m ou au-dessous de l'altitude minimale du secteur la plus élevée (si>1500m) et absence de CB
- pas de temps présent significatif
24/10 température 24°C, point de rosée 10°C
 soit une humidité relative de 41%
Q1017 la pression au niveau de la mer (QNH) est de 1017 hPa